Time;durP1;ratioP1;P1;durP2;ratioP2;P2;SDS_P1;SDS_P2;PMS_P1;PMS_P2;Temp;Humidity;BMP_temperature;BMP_pressure;BME280_temperature;BME280_humidity;BME280_pressure;Samples;Min_cycle;Max_cycle;Signal;HPM_P1;HPM_P2
2022/01/07 00:00:49;;;;;;;23.52;7.43;;;5.40;62.20;;;;;;4976954;28;20029;-55
2022/01/07 00:03:15;;;;;;;20.08;7.85;;;5.50;62.30;;;;;;4978965;28;20049;-57
2022/01/07 00:05:42;;;;;;;18.02;7.45;;;5.50;62.30;;;;;;4983291;28;20030;-56
2022/01/07 00:08:08;;;;;;;20.83;8.20;;;5.50;62.30;;;;;;4977290;28;20710;-58
2022/01/07 00:10:34;;;;;;;22.17;7.90;;;5.50;62.20;;;;;;4979464;28;20026;-58
2022/01/07 00:13:01;;;;;;;22.25;8.50;;;5.50;62.20;;;;;;4977088;28;20022;-58
2022/01/07 00:15:27;;;;;;;30.85;8.95;;;5.50;62.20;;;;;;4980281;28;20053;-56
2022/01/07 00:17:53;;;;;;;20.40;8.73;;;5.60;62.20;;;;;;4977197;28;20555;-56
2022/01/07 00:20:20;;;;;;;19.55;8.48;;;5.60;62.10;;;;;;4965541;28;20034;-54
2022/01/07 00:22:48;;;;;;;19.35;8.23;;;5.60;62.10;;;;;;4982963;28;20026;-55
2022/01/07 00:25:14;;;;;;;16.95;7.63;;;5.60;62.00;;;;;;4963006;28;20045;-55
2022/01/07 00:27:41;;;;;;;22.70;8.35;;;5.60;62.00;;;;;;4973679;28;20026;-58
2022/01/07 00:30:09;;;;;;;19.83;7.40;;;5.60;61.90;;;;;;4978151;28;20050;-58
2022/01/07 00:32:36;;;;;;;24.33;8.43;;;5.60;61.90;;;;;;4978094;28;20042;-56
2022/01/07 00:35:03;;;;;;;23.50;8.15;;;5.60;61.90;;;;;;4982177;28;20042;-58
2022/01/07 00:37:29;;;;;;;20.48;8.13;;;5.60;61.80;;;;;;4977674;28;20045;-54
2022/01/07 00:39:55;;;;;;;21.80;8.13;;;5.60;61.80;;;;;;4978190;28;20800;-57
2022/01/07 00:42:22;;;;;;;22.63;7.65;;;5.60;61.80;;;;;;4982093;28;20033;-58
2022/01/07 00:44:48;;;;;;;23.20;7.57;;;5.50;61.80;;;;;;4981198;28;20483;-58
2022/01/07 00:47:15;;;;;;;21.23;7.45;;;5.60;61.80;;;;;;4970648;28;20045;-54
2022/01/07 00:49:42;;;;;;;25.73;8.13;;;5.60;61.90;;;;;;4981880;28;20403;-58
2022/01/07 00:52:09;;;;;;;18.52;7.10;;;5.60;61.80;;;;;;4976654;28;20027;-56
2022/01/07 00:54:35;;;;;;;18.48;7.50;;;5.50;61.80;;;;;;4982342;28;20030;-55
2022/01/07 00:57:02;;;;;;;23.77;7.85;;;5.50;61.80;;;;;;4979056;28;20034;-57
2022/01/07 00:59:28;;;;;;;17.40;7.05;;;5.50;61.80;;;;;;4978589;28;20034;-58
2022/01/07 01:01:54;;;;;;;23.60;7.40;;;5.50;61.80;;;;;;4978268;28;20037;-52
2022/01/07 01:04:20;;;;;;;23.83;7.38;;;5.50;61.80;;;;;;4981485;28;20591;-56
2022/01/07 01:06:46;;;;;;;22.42;7.25;;;5.50;61.80;;;;;;4979712;28;20487;-56
2022/01/07 01:09:13;;;;;;;23.45;7.18;;;5.50;61.80;;;;;;4978390;28;20026;-58
2022/01/07 01:11:40;;;;;;;21.40;6.93;;;5.50;61.80;;;;;;4979112;28;20030;-56
2022/01/07 01:14:06;;;;;;;17.23;6.97;;;5.50;61.80;;;;;;4979442;28;20367;-56
2022/01/07 01:16:33;;;;;;;24.08;7.22;;;5.50;61.80;;;;;;4977518;28;20372;-58
2022/01/07 01:18:59;;;;;;;21.45;6.43;;;5.50;61.80;;;;;;4977341;28;20030;-58
2022/01/07 01:21:25;;;;;;;21.70;6.40;;;5.50;61.90;;;;;;4980934;28;20073;-58
2022/01/07 01:23:51;;;;;;;25.92;7.40;;;5.50;61.80;;;;;;4977943;28;20030;-56
2022/01/07 01:26:20;;;;;;;17.90;6.70;;;5.50;62.20;;;;;;4979509;28;20474;-58
2022/01/07 01:28:47;;;;;;;19.80;7.45;;;5.50;61.90;;;;;;4975929;28;20061;-57
2022/01/07 01:31:16;;;;;;;19.30;6.95;;;5.50;61.90;;;;;;4973318;28;20977;-57
2022/01/07 01:33:44;;;;;;;18.88;6.63;;;5.50;62.00;;;;;;4978758;28;20054;-55
2022/01/07 01:36:11;;;;;;;14.02;5.93;;;5.50;62.00;;;;;;4980613;28;20026;-56
2022/01/07 01:38:38;;;;;;;15.32;6.40;;;5.50;62.00;;;;;;4978801;28;20073;-58
2022/01/07 01:41:05;;;;;;;18.00;7.07;;;5.50;62.00;;;;;;4981280;28;20026;-55
2022/01/07 01:43:32;;;;;;;23.52;6.57;;;5.50;62.00;;;;;;4979382;28;20041;-56
2022/01/07 01:45:58;;;;;;;16.45;6.68;;;5.50;62.00;;;;;;4978574;28;20030;-58
2022/01/07 01:48:24;;;;;;;16.60;6.50;;;5.50;62.00;;;;;;4972263;28;20031;-58
2022/01/07 01:50:51;;;;;;;16.83;6.05;;;5.50;62.00;;;;;;4978888;28;20034;-55
2022/01/07 01:53:18;;;;;;;24.92;6.68;;;5.50;62.00;;;;;;4973792;28;20509;-56
2022/01/07 01:55:44;;;;;;;22.98;6.97;;;5.60;62.10;;;;;;4978486;28;20026;-55
2022/01/07 01:58:11;;;;;;;21.25;6.57;;;5.60;62.10;;;;;;4975988;28;20026;-58
2022/01/07 02:00:38;;;;;;;20.17;6.90;;;5.60;62.00;;;;;;4978366;28;20041;-58
2022/01/07 02:03:05;;;;;;;21.30;6.70;;;5.60;62.10;;;;;;4979763;28;20030;-58
2022/01/07 02:05:32;;;;;;;20.90;7.03;;;5.50;62.00;;;;;;4979515;28;20106;-57
2022/01/07 02:07:59;;;;;;;19.02;6.85;;;5.50;62.00;;;;;;4974108;28;21155;-58
2022/01/07 02:10:26;;;;;;;25.27;6.80;;;5.60;62.10;;;;;;4972753;28;20034;-55
2022/01/07 02:12:53;;;;;;;20.88;6.60;;;5.60;62.10;;;;;;4976230;28;20045;-55
2022/01/07 02:15:19;;;;;;;16.35;5.93;;;5.60;62.00;;;;;;4976155;28;20038;-56
2022/01/07 02:17:47;;;;;;;16.23;5.70;;;5.60;62.00;;;;;;4972912;28;20035;-56
2022/01/07 02:20:17;;;;;;;15.90;5.93;;;5.60;62.00;;;;;;4979817;28;20041;-56
2022/01/07 02:22:43;;;;;;;16.98;5.82;;;5.60;62.00;;;;;;4978872;28;20038;-56
2022/01/07 02:25:11;;;;;;;13.88;6.05;;;5.60;62.00;;;;;;4979731;28;20479;-58
2022/01/07 02:27:41;;;;;;;17.48;6.13;;;5.60;62.00;;;;;;4973349;28;20620;-58
2022/01/07 02:30:11;;;;;;;17.58;6.13;;;5.60;62.00;;;;;;4975857;28;20033;-57
2022/01/07 02:32:37;;;;;;;17.95;6.30;;;5.60;62.10;;;;;;4976683;28;20034;-57
2022/01/07 02:35:05;;;;;;;21.80;5.97;;;5.60;62.00;;;;;;4979745;28;20054;-58
2022/01/07 02:37:31;;;;;;;15.00;6.00;;;5.70;62.10;;;;;;4956030;28;20046;-56
2022/01/07 02:39:58;;;;;;;18.08;6.22;;;5.70;62.00;;;;;;4960169;28;20038;-56
2022/01/07 02:42:25;;;;;;;15.35;5.47;;;5.70;62.00;;;;;;4978235;28;20575;-56
2022/01/07 02:44:52;;;;;;;15.93;5.50;;;5.70;61.90;;;;;;4981477;28;20049;-56
2022/01/07 02:47:19;;;;;;;15.05;5.00;;;5.70;61.90;;;;;;4972171;28;20042;-58
2022/01/07 02:49:45;;;;;;;19.13;5.32;;;5.70;61.80;;;;;;4978257;28;20069;-55
2022/01/07 02:52:11;;;;;;;16.73;6.15;;;5.80;61.70;;;;;;4972909;28;20034;-57
2022/01/07 02:54:38;;;;;;;17.77;4.78;;;5.80;61.50;;;;;;4977934;28;20031;-55
2022/01/07 02:57:04;;;;;;;13.90;4.63;;;5.80;61.40;;;;;;4977257;28;20030;-54
2022/01/07 02:59:31;;;;;;;13.77;5.25;;;5.80;61.30;;;;;;4978627;28;20041;-56
2022/01/07 03:01:57;;;;;;;18.67;4.85;;;5.80;61.30;;;;;;4976452;28;20038;-56
2022/01/07 03:04:24;;;;;;;14.90;5.00;;;5.80;61.20;;;;;;4978404;28;20026;-55
2022/01/07 03:06:50;;;;;;;17.08;5.28;;;5.80;61.20;;;;;;4975217;28;20502;-58
2022/01/07 03:09:17;;;;;;;12.82;4.05;;;5.90;61.20;;;;;;4970121;28;20027;-56
2022/01/07 03:11:43;;;;;;;14.70;4.82;;;5.80;61.20;;;;;;4976361;28;20039;-56
2022/01/07 03:14:09;;;;;;;16.63;5.10;;;5.90;61.10;;;;;;4965564;28;20031;-54
2022/01/07 03:16:35;;;;;;;13.85;4.75;;;5.80;60.90;;;;;;4975480;28;20045;-55
2022/01/07 03:19:02;;;;;;;10.73;4.03;;;5.90;61.10;;;;;;4975781;28;20523;-55
2022/01/07 03:21:28;;;;;;;14.35;4.03;;;5.90;60.90;;;;;;4978315;28;20041;-55
2022/01/07 03:23:54;;;;;;;11.05;4.15;;;5.90;60.80;;;;;;4976214;28;20046;-58
2022/01/07 03:26:21;;;;;;;10.73;3.75;;;5.90;60.80;;;;;;4976380;28;20060;-52
2022/01/07 03:28:47;;;;;;;15.05;3.97;;;5.90;60.70;;;;;;4974006;28;20031;-56
2022/01/07 03:31:13;;;;;;;13.07;4.20;;;5.90;60.60;;;;;;4971753;28;20043;-56
2022/01/07 03:33:40;;;;;;;9.07;3.70;;;5.90;60.50;;;;;;4974853;28;20042;-56
2022/01/07 03:36:06;;;;;;;12.95;3.42;;;5.90;60.40;;;;;;4979477;28;20406;-55
2022/01/07 03:38:32;;;;;;;11.77;3.60;;;6.00;60.40;;;;;;4961451;28;20035;-55
2022/01/07 03:40:59;;;;;;;18.90;4.35;;;6.00;60.30;;;;;;4962040;28;20031;-57
2022/01/07 03:43:25;;;;;;;8.73;3.42;;;6.00;60.30;;;;;;4962352;28;20515;-54
2022/01/07 03:45:51;;;;;;;11.80;4.00;;;6.00;60.30;;;;;;4962142;28;20057;-56
2022/01/07 03:48:18;;;;;;;9.20;3.15;;;6.00;60.30;;;;;;4958917;28;20476;-56
2022/01/07 03:50:44;;;;;;;13.90;3.97;;;6.00;60.30;;;;;;4959370;28;20050;-54
2022/01/07 03:53:10;;;;;;;11.38;3.60;;;6.10;60.30;;;;;;4963320;28;20038;-51
2022/01/07 03:55:36;;;;;;;11.00;3.53;;;6.10;60.20;;;;;;4957647;28;20047;-56
2022/01/07 03:58:03;;;;;;;11.00;3.72;;;6.10;60.10;;;;;;4959868;28;20023;-56
2022/01/07 04:00:34;;;;;;;8.93;3.60;;;6.10;59.90;;;;;;4959647;28;20030;-55
2022/01/07 04:03:12;;;;;;;9.07;3.55;;;6.10;59.80;;;;;;4959075;28;20045;-56
2022/01/07 04:05:39;;;;;;;10.23;3.38;;;6.10;59.70;;;;;;4961220;28;20030;-55
2022/01/07 04:08:06;;;;;;;12.05;4.53;;;6.20;59.70;;;;;;4958950;28;20031;-58
2022/01/07 04:10:33;;;;;;;9.75;3.53;;;6.20;59.60;;;;;;4962110;28;20034;-56
2022/01/07 04:12:59;;;;;;;6.70;3.20;;;6.20;59.50;;;;;;4959906;28;20050;-55
2022/01/07 04:15:26;;;;;;;12.13;3.33;;;6.20;59.50;;;;;;4962449;28;20023;-56
2022/01/07 04:17:54;;;;;;;11.60;2.92;;;6.20;59.50;;;;;;4938279;28;20035;-58
2022/01/07 04:20:25;;;;;;;8.65;2.92;;;6.20;59.50;;;;;;4956625;28;20035;-56
2022/01/07 04:22:51;;;;;;;11.40;3.20;;;6.20;59.60;;;;;;4957078;28;20499;-56
2022/01/07 04:25:20;;;;;;;10.40;3.10;;;6.20;59.70;;;;;;4963140;28;20620;-56
2022/01/07 04:27:49;;;;;;;12.82;3.47;;;6.20;59.80;;;;;;4952941;28;20435;-56
2022/01/07 04:30:16;;;;;;;11.50;3.58;;;6.20;59.90;;;;;;4960813;28;20035;-54
2022/01/07 04:32:42;;;;;;;7.28;3.17;;;6.20;60.00;;;;;;4955934;28;20031;-55
2022/01/07 04:35:11;;;;;;;14.13;4.03;;;6.20;60.10;;;;;;4959568;28;20034;-53
2022/01/07 04:37:37;;;;;;;14.43;3.60;;;6.20;60.20;;;;;;4956079;28;20298;-58
2022/01/07 04:40:05;;;;;;;11.68;3.15;;;6.20;60.20;;;;;;4964431;28;20030;-56
2022/01/07 04:42:32;;;;;;;14.80;3.35;;;6.20;61.00;;;;;;4963752;28;20034;-54
2022/01/07 04:44:58;;;;;;;7.78;3.85;;;6.20;60.30;;;;;;4961851;28;20038;-56
2022/01/07 04:47:25;;;;;;;16.08;5.38;;;6.20;60.40;;;;;;4953721;28;20043;-51
2022/01/07 04:49:51;;;;;;;13.60;4.55;;;6.20;60.40;;;;;;4962988;28;20027;-58
2022/01/07 04:52:17;;;;;;;12.38;4.00;;;6.20;60.50;;;;;;4961462;28;20047;-56
2022/01/07 04:54:44;;;;;;;12.20;4.07;;;6.20;60.50;;;;;;4942719;28;20962;-53
2022/01/07 04:57:10;;;;;;;15.20;4.80;;;6.20;60.60;;;;;;4956785;28;20039;-55
2022/01/07 04:59:37;;;;;;;15.55;6.47;;;6.20;60.60;;;;;;4960127;28;20023;-56
2022/01/07 05:02:03;;;;;;;15.07;4.75;;;6.20;60.70;;;;;;4957641;28;20040;-58
2022/01/07 05:04:29;;;;;;;16.40;4.47;;;6.20;60.80;;;;;;4960964;28;20398;-54
2022/01/07 05:06:55;;;;;;;16.08;4.40;;;6.20;60.80;;;;;;4961017;28;20388;-56
2022/01/07 05:09:22;;;;;;;9.32;4.07;;;6.10;60.70;;;;;;4959286;28;20031;-54
2022/01/07 05:11:50;;;;;;;9.48;4.22;;;6.10;60.70;;;;;;4960580;28;20051;-55
2022/01/07 05:14:17;;;;;;;19.23;5.07;;;6.10;60.80;;;;;;4944609;28;20038;-53
2022/01/07 05:16:44;;;;;;;17.35;5.15;;;6.10;60.80;;;;;;4958435;28;20027;-53
2022/01/07 05:19:11;;;;;;;15.75;4.93;;;6.10;60.80;;;;;;4956703;28;20019;-56
2022/01/07 05:21:38;;;;;;;15.27;5.10;;;6.10;60.80;;;;;;4927898;28;20038;-56
2022/01/07 05:24:05;;;;;;;13.82;5.13;;;6.10;60.90;;;;;;4959979;28;20039;-56
2022/01/07 05:26:31;;;;;;;15.20;5.05;;;6.10;61.00;;;;;;4958102;28;20046;-58
2022/01/07 05:28:58;;;;;;;8.50;4.43;;;6.10;61.10;;;;;;4959010;28;20030;-55
2022/01/07 05:31:24;;;;;;;11.27;4.38;;;6.10;61.10;;;;;;4956128;28;20035;-54
2022/01/07 05:33:52;;;;;;;20.65;9.05;;;6.10;61.20;;;;;;4957973;28;20210;-56
2022/01/07 05:36:20;;;;;;;39.13;15.55;;;6.00;61.10;;;;;;4959962;28;20034;-55
2022/01/07 05:38:47;;;;;;;17.40;7.25;;;6.00;61.10;;;;;;4957538;28;20547;-56
2022/01/07 05:41:14;;;;;;;13.70;5.75;;;6.00;61.10;;;;;;4960181;28;20038;-55
2022/01/07 05:43:40;;;;;;;12.85;4.78;;;6.00;61.20;;;;;;4959301;28;20467;-54
2022/01/07 05:46:12;;;;;;;15.50;4.70;;;6.00;61.30;;;;;;4955234;28;20050;-54
2022/01/07 05:48:39;;;;;;;11.55;4.85;;;6.00;61.30;;;;;;4959160;28;20051;-55
2022/01/07 05:51:05;;;;;;;16.52;5.40;;;6.00;61.30;;;;;;4958504;28;20050;-55
2022/01/07 05:53:32;;;;;;;9.05;4.30;;;6.00;61.40;;;;;;4944836;28;20782;-57
2022/01/07 05:55:58;;;;;;;9.98;4.40;;;6.00;61.30;;;;;;4957843;28;20507;-58
2022/01/07 05:58:24;;;;;;;14.88;4.40;;;6.00;61.30;;;;;;4956276;28;20031;-56
2022/01/07 06:00:50;;;;;;;14.32;4.47;;;6.00;61.40;;;;;;4956905;28;20042;-56
2022/01/07 06:03:16;;;;;;;13.77;4.72;;;6.00;61.40;;;;;;4960572;28;20030;-56
2022/01/07 06:05:43;;;;;;;91.95;30.75;;;6.00;61.40;;;;;;4957002;28;20039;-57
2022/01/07 06:08:09;;;;;;;58.40;24.73;;;6.00;61.50;;;;;;4955980;28;20491;-55
2022/01/07 06:10:36;;;;;;;20.80;7.80;;;6.00;61.50;;;;;;4961712;28;20034;-55
2022/01/07 06:13:02;;;;;;;13.23;4.68;;;6.00;62.30;;;;;;4957039;28;20033;-55
2022/01/07 06:15:28;;;;;;;13.60;5.03;;;6.00;61.60;;;;;;4958443;28;20039;-58
2022/01/07 06:17:54;;;;;;;11.82;4.13;;;6.00;61.60;;;;;;4951590;28;20928;-54
2022/01/07 06:20:21;;;;;;;14.40;4.32;;;6.00;61.70;;;;;;4957149;28;20026;-57
2022/01/07 06:22:48;;;;;;;14.77;4.43;;;6.00;61.50;;;;;;4958746;28;20049;-55
2022/01/07 06:25:14;;;;;;;12.13;3.90;;;6.00;61.50;;;;;;4957744;28;20035;-55
2022/01/07 06:27:40;;;;;;;15.05;5.50;;;6.00;61.50;;;;;;4952729;28;20510;-56
2022/01/07 06:30:07;;;;;;;83.82;32.08;;;6.00;61.40;;;;;;4953581;28;20026;-58
2022/01/07 06:32:34;;;;;;;21.25;7.78;;;6.10;61.50;;;;;;4953096;28;20124;-55
2022/01/07 06:35:00;;;;;;;17.13;5.30;;;6.10;61.50;;;;;;4959585;28;20039;-57
2022/01/07 06:37:26;;;;;;;15.43;3.90;;;6.10;61.50;;;;;;4958493;28;20419;-53
2022/01/07 06:39:52;;;;;;;9.95;3.63;;;6.10;61.60;;;;;;4960467;28;20035;-55
2022/01/07 06:42:19;;;;;;;11.57;3.63;;;6.10;61.50;;;;;;4959606;28;20479;-54
2022/01/07 06:44:45;;;;;;;11.63;3.55;;;6.10;61.50;;;;;;4958031;28;20026;-54
2022/01/07 06:47:11;;;;;;;10.95;3.50;;;6.10;61.50;;;;;;4946625;28;20043;-56
2022/01/07 06:49:37;;;;;;;12.32;3.60;;;6.10;61.50;;;;;;4956025;28;20027;-56
2022/01/07 06:52:04;;;;;;;11.80;3.63;;;6.10;61.60;;;;;;4938395;28;20042;-57
2022/01/07 06:54:31;;;;;;;12.00;3.90;;;6.10;61.60;;;;;;4953146;28;20031;-56
2022/01/07 06:56:58;;;;;;;13.68;3.58;;;6.10;61.60;;;;;;4957993;28;20054;-56
2022/01/07 06:59:24;;;;;;;14.57;3.67;;;6.20;62.30;;;;;;4952348;28;20042;-55
2022/01/07 07:01:51;;;;;;;10.30;3.30;;;6.10;61.50;;;;;;4939363;28;20054;-56
2022/01/07 07:04:17;;;;;;;11.82;3.08;;;6.20;61.40;;;;;;4959125;28;20038;-56
2022/01/07 07:06:44;;;;;;;9.90;3.38;;;6.20;61.40;;;;;;4958198;28;20494;-56
2022/01/07 07:09:11;;;;;;;11.68;3.20;;;6.20;61.40;;;;;;4955732;28;20038;-58
2022/01/07 07:11:37;;;;;;;11.15;3.95;;;6.20;61.40;;;;;;4958608;28;20054;-58
2022/01/07 07:14:03;;;;;;;11.63;3.35;;;6.20;61.40;;;;;;4956801;28;20039;-56
2022/01/07 07:16:29;;;;;;;11.20;3.75;;;6.20;61.40;;;;;;4956522;28;20019;-56
2022/01/07 07:18:56;;;;;;;9.27;3.30;;;6.30;61.40;;;;;;4953960;28;20047;-56
2022/01/07 07:21:22;;;;;;;12.30;4.38;;;6.20;61.30;;;;;;4958554;28;20030;-58
2022/01/07 07:23:48;;;;;;;7.88;3.00;;;6.30;61.30;;;;;;4957798;28;20034;-54
2022/01/07 07:26:14;;;;;;;8.18;2.78;;;6.30;61.40;;;;;;4955716;28;20023;-56
2022/01/07 07:28:41;;;;;;;10.90;3.45;;;6.30;61.40;;;;;;4949467;28;20956;-56
2022/01/07 07:31:12;;;;;;;6.72;2.80;;;6.30;61.40;;;;;;4956931;28;20026;-58
2022/01/07 07:36:30;;;;;;;11.60;3.35;;;6.30;61.30;;;;;;4964254;28;20391;-54
2022/01/07 07:39:16;;;;;;;9.82;2.88;;;6.30;61.20;;;;;;4952423;28;20510;-55
2022/01/07 07:41:43;;;;;;;7.78;3.15;;;6.30;61.20;;;;;;4955625;28;20050;-53
2022/01/07 07:44:10;;;;;;;5.22;3.00;;;6.30;61.20;;;;;;4958284;28;20042;-58
2022/01/07 07:46:40;;;;;;;12.35;2.72;;;6.30;61.20;;;;;;4954771;28;20030;-54
2022/01/07 07:49:07;;;;;;;8.77;3.15;;;6.30;61.20;;;;;;4954006;28;20023;-56
2022/01/07 07:51:35;;;;;;;9.00;3.20;;;6.30;61.30;;;;;;4956363;28;20046;-55
2022/01/07 07:54:02;;;;;;;10.82;3.60;;;6.30;61.30;;;;;;4956548;28;20039;-58
2022/01/07 07:56:29;;;;;;;6.75;2.92;;;6.30;61.30;;;;;;4940387;28;20395;-56
2022/01/07 07:58:57;;;;;;;9.35;2.80;;;6.30;61.30;;;;;;4952160;28;20031;-53
2022/01/07 08:01:24;;;;;;;9.50;2.80;;;6.30;61.40;;;;;;4953691;28;20039;-56
2022/01/07 08:03:51;;;;;;;12.43;3.00;;;6.30;61.30;;;;;;4954026;28;20030;-54
2022/01/07 08:06:17;;;;;;;7.60;2.97;;;6.30;61.30;;;;;;4956729;28;20030;-58
2022/01/07 08:08:45;;;;;;;8.45;2.83;;;6.30;61.20;;;;;;4953622;28;20042;-56
2022/01/07 08:11:12;;;;;;;11.65;3.10;;;6.30;61.10;;;;;;4952898;28;20035;-58
2022/01/07 08:16:25;;;;;;;13.15;4.53;;;6.30;61.00;;;;;;4955846;28;20037;-53
2022/01/07 08:18:54;;;;;;;17.05;6.07;;;6.30;61.00;;;;;;4953107;28;20043;-55
2022/01/07 08:21:24;;;;;;;9.23;3.72;;;6.20;61.00;;;;;;4958040;28;20399;-56
2022/01/07 08:23:51;;;;;;;11.85;3.00;;;6.30;61.10;;;;;;4960613;28;20351;-56
2022/01/07 08:26:18;;;;;;;8.25;3.00;;;6.30;61.20;;;;;;4959897;28;20407;-56
2022/01/07 08:28:56;;;;;;;10.95;3.35;;;6.30;61.10;;;;;;4957042;28;20398;-55
2022/01/07 08:34:53;;;;;;;8.30;2.95;;;6.30;61.20;;;;;;4957880;28;20055;-56
2022/01/07 08:36:57;;;;;;;11.40;3.13;;;6.30;61.10;;;;;;4966730;28;20050;-54
2022/01/07 08:39:25;;;;;;;7.47;2.95;;;6.30;61.00;;;;;;4958482;28;20398;-56
2022/01/07 08:41:51;;;;;;;9.18;2.95;;;6.30;61.10;;;;;;4959142;28;20435;-56
2022/01/07 08:44:19;;;;;;;11.88;3.28;;;6.30;61.00;;;;;;4956044;28;20043;-56
2022/01/07 08:46:45;;;;;;;7.82;3.08;;;6.30;61.00;;;;;;4960626;28;20053;-54
2022/01/07 08:49:12;;;;;;;6.57;2.63;;;6.30;60.90;;;;;;4957730;28;20436;-54
2022/01/07 08:51:39;;;;;;;9.77;2.72;;;6.40;61.00;;;;;;4954592;28;20486;-57
2022/01/07 08:54:06;;;;;;;8.35;2.83;;;6.40;61.00;;;;;;4939966;28;20038;-55
2022/01/07 08:56:34;;;;;;;9.73;2.78;;;6.40;60.90;;;;;;4938860;28;20035;-57
2022/01/07 08:59:00;;;;;;;7.95;2.88;;;6.40;60.90;;;;;;4957415;28;20019;-56
2022/01/07 09:01:28;;;;;;;10.65;2.72;;;6.40;61.10;;;;;;4956763;28;20823;-56
2022/01/07 09:03:55;;;;;;;6.85;2.80;;;6.40;60.80;;;;;;4957377;28;20023;-55
2022/01/07 09:06:21;;;;;;;8.82;3.03;;;6.40;60.90;;;;;;4942240;28;20046;-57
2022/01/07 09:08:47;;;;;;;11.30;3.08;;;6.50;60.90;;;;;;4956234;28;20042;-57
2022/01/07 09:11:14;;;;;;;13.90;5.47;;;6.50;60.90;;;;;;4959518;28;20034;-57
2022/01/07 09:13:40;;;;;;;16.52;6.85;;;6.50;60.80;;;;;;4958682;28;20031;-56
2022/01/07 09:16:06;;;;;;;15.50;6.75;;;6.50;60.80;;;;;;4959284;28;20034;-57
2022/01/07 09:18:33;;;;;;;11.63;3.85;;;6.50;60.80;;;;;;4953686;28;20058;-55
2022/01/07 09:20:59;;;;;;;12.70;4.35;;;6.50;60.70;;;;;;4958312;28;20027;-56
2022/01/07 09:23:26;;;;;;;19.85;10.13;;;6.50;60.70;;;;;;4959615;28;20039;-58
2022/01/07 09:25:52;;;;;;;10.63;4.63;;;6.60;60.70;;;;;;4960249;28;20022;-56
2022/01/07 09:28:18;;;;;;;6.20;2.88;;;6.60;60.70;;;;;;4959032;28;20042;-56
2022/01/07 09:30:45;;;;;;;9.15;3.17;;;6.60;60.60;;;;;;4954969;28;20331;-55
2022/01/07 09:33:11;;;;;;;6.82;3.03;;;6.60;60.70;;;;;;4958844;28;20023;-57
2022/01/07 09:35:37;;;;;;;8.57;3.30;;;6.60;60.50;;;;;;4959386;28;20042;-58
2022/01/07 09:38:05;;;;;;;6.25;2.67;;;6.60;60.60;;;;;;4959510;28;20431;-56
2022/01/07 09:40:31;;;;;;;7.57;2.70;;;6.70;60.60;;;;;;4941484;28;20045;-56
2022/01/07 09:43:00;;;;;;;10.18;2.92;;;6.70;60.70;;;;;;4960829;28;20903;-55
2022/01/07 09:45:27;;;;;;;8.25;2.53;;;6.70;60.60;;;;;;4958003;28;20039;-56
2022/01/07 09:47:54;;;;;;;7.75;2.88;;;6.70;60.60;;;;;;4955448;28;20032;-56
2022/01/07 09:50:22;;;;;;;8.35;2.33;;;6.70;60.60;;;;;;4960734;28;20027;-58
2022/01/07 09:52:48;;;;;;;6.05;2.53;;;6.70;60.70;;;;;;4958804;28;20019;-55
2022/01/07 09:55:15;;;;;;;6.30;2.72;;;6.80;60.90;;;;;;4959012;28;20043;-57
2022/01/07 09:57:41;;;;;;;5.43;2.72;;;6.80;60.90;;;;;;4953626;28;20027;-56
2022/01/07 10:00:09;;;;;;;2.95;1.73;;;6.80;61.00;;;;;;4941615;28;20391;-54
2022/01/07 10:02:35;;;;;;;4.40;2.03;;;6.80;61.20;;;;;;4955915;28;20053;-56
2022/01/07 10:05:16;;;;;;;4.70;2.22;;;6.80;61.20;;;;;;4956249;28;20031;-55
2022/01/07 10:07:43;;;;;;;5.28;2.35;;;6.90;61.20;;;;;;4956169;28;20031;-57
2022/01/07 10:10:14;;;;;;;4.57;2.45;;;6.90;61.20;;;;;;4931101;28;20043;-58
2022/01/07 10:13:03;;;;;;;5.05;2.70;;;7.00;61.30;;;;;;4959158;28;20065;-55
2022/01/07 10:15:37;;;;;;;3.10;2.25;;;7.00;61.20;;;;;;4957126;28;20398;-53
2022/01/07 10:18:09;;;;;;;7.38;2.53;;;7.00;61.10;;;;;;4949510;28;20042;-57
2022/01/07 10:20:44;;;;;;;5.13;2.22;;;7.00;61.00;;;;;;4958684;28;20054;-57
2022/01/07 10:23:13;;;;;;;5.93;2.33;;;7.00;61.00;;;;;;4956750;28;20039;-57
2022/01/07 10:25:43;;;;;;;3.50;1.98;;;7.10;61.00;;;;;;4956983;28;20043;-53
2022/01/07 10:28:09;;;;;;;4.65;1.85;;;7.10;61.00;;;;;;4955873;28;20367;-55
2022/01/07 10:30:37;;;;;;;3.45;1.77;;;7.10;61.00;;;;;;4956664;28;20027;-57
2022/01/07 10:33:15;;;;;;;3.90;1.42;;;7.10;60.90;;;;;;4957473;28;20070;-55
2022/01/07 10:35:41;;;;;;;2.10;1.25;;;7.10;60.90;;;;;;4959650;28;20035;-57
2022/01/07 10:38:07;;;;;;;2.63;1.25;;;7.10;60.90;;;;;;4957906;28;20058;-56
2022/01/07 10:40:41;;;;;;;2.25;1.20;;;7.20;61.00;;;;;;4956754;28;20031;-56
2022/01/07 10:43:14;;;;;;;2.60;1.40;;;7.20;61.00;;;;;;4958450;28;20026;-57
2022/01/07 10:45:44;;;;;;;2.28;1.40;;;7.20;61.00;;;;;;4956939;28;20019;-56
2022/01/07 10:48:11;;;;;;;2.42;1.20;;;7.20;61.00;;;;;;4955491;28;20054;-56
2022/01/07 10:50:49;;;;;;;6.07;1.58;;;7.30;61.00;;;;;;4957603;28;20030;-58
2022/01/07 10:53:21;;;;;;;3.25;1.38;;;7.30;60.90;;;;;;4957555;28;20047;-54
2022/01/07 10:55:58;;;;;;;3.83;1.70;;;7.30;60.70;;;;;;4956163;28;20081;-57
2022/01/07 10:58:26;;;;;;;2.08;1.60;;;7.40;60.60;;;;;;4956192;28;20387;-55
2022/01/07 11:00:52;;;;;;;4.68;1.30;;;7.40;60.60;;;;;;4958065;28;20030;-55
2022/01/07 11:03:18;;;;;;;7.10;1.40;;;7.40;60.40;;;;;;4956776;28;20038;-55
2022/01/07 11:05:45;;;;;;;24.70;2.55;;;7.40;60.20;;;;;;4957110;28;20026;-56
2022/01/07 11:08:14;;;;;;;3.40;1.65;;;7.40;60.00;;;;;;4948880;28;20039;-56
2022/01/07 11:10:41;;;;;;;4.90;1.60;;;7.40;59.90;;;;;;4956611;28;20031;-58
2022/01/07 11:13:10;;;;;;;11.38;2.10;;;7.50;59.90;;;;;;4955677;28;20138;-58
2022/01/07 11:15:37;;;;;;;2.75;1.10;;;7.40;59.80;;;;;;4957902;28;20023;-53
2022/01/07 11:18:03;;;;;;;2.42;1.10;;;7.50;59.90;;;;;;4950191;28;20034;-56
2022/01/07 11:20:30;;;;;;;1.70;1.05;;;7.50;59.80;;;;;;4957745;28;20034;-55
2022/01/07 11:22:56;;;;;;;2.30;1.23;;;7.50;59.80;;;;;;4958498;28;20042;-56
2022/01/07 11:25:32;;;;;;;2.78;1.35;;;7.50;59.80;;;;;;4957896;28;20026;-57
2022/01/07 11:28:00;;;;;;;1.80;1.00;;;7.50;59.80;;;;;;4949570;28;20371;-54
2022/01/07 11:30:33;;;;;;;3.85;1.50;;;7.60;60.00;;;;;;4960264;28;20038;-56
2022/01/07 11:33:00;;;;;;;3.60;1.63;;;7.60;59.90;;;;;;4950116;28;20449;-57
2022/01/07 11:35:26;;;;;;;1.58;1.00;;;7.60;59.90;;;;;;4957987;28;20027;-55
2022/01/07 11:37:58;;;;;;;1.25;0.80;;;7.70;60.00;;;;;;4953554;28;20043;-55
2022/01/07 11:40:31;;;;;;;2.53;0.82;;;7.70;59.80;;;;;;4960162;28;20037;-55
2022/01/07 11:43:13;;;;;;;2.15;0.70;;;7.70;59.70;;;;;;4960503;28;20042;-57
2022/01/07 11:45:41;;;;;;;1.58;1.00;;;7.80;60.00;;;;;;4927951;28;20038;-56
2022/01/07 11:48:26;;;;;;;1.48;1.30;;;7.80;59.50;;;;;;4955282;28;20023;-56
2022/01/07 11:50:55;;;;;;;;;;;7.80;59.30;;;;;;4959914;28;20515;-55
2022/01/07 11:53:41;;;;;;;2.22;1.27;;;7.90;59.50;;;;;;4958627;28;19910;-57
2022/01/07 11:56:12;;;;;;;3.10;1.70;;;7.90;59.20;;;;;;4957121;28;20035;-54
2022/01/07 11:58:43;;;;;;;1.83;1.20;;;8.00;59.20;;;;;;4962668;28;20035;-56
2022/01/07 12:01:29;;;;;;;1.15;0.90;;;8.00;59.00;;;;;;4963627;28;20035;-56
2022/01/07 12:04:00;;;;;;;3.22;2.30;;;8.00;58.70;;;;;;4945831;28;20038;-55
2022/01/07 12:06:27;;;;;;;3.63;1.60;;;8.10;59.40;;;;;;4963838;28;20031;-58
2022/01/07 12:08:56;;;;;;;2.35;1.10;;;8.00;58.70;;;;;;4961130;28;20483;-56
2022/01/07 12:11:24;;;;;;;2.40;1.20;;;8.10;58.60;;;;;;4961425;28;20527;-55
2022/01/07 12:13:50;;;;;;;1.20;0.70;;;8.10;58.40;;;;;;4946145;28;20041;-55
2022/01/07 12:16:27;;;;;;;2.03;1.30;;;8.10;58.30;;;;;;4961318;28;20039;-54
2022/01/07 12:19:23;;;;;;;2.88;1.70;;;8.10;58.20;;;;;;4960839;28;20035;-56
2022/01/07 12:21:51;;;;;;;3.08;1.13;;;8.10;58.20;;;;;;4963089;28;20417;-56
2022/01/07 12:24:23;;;;;;;1.88;1.00;;;8.10;58.30;;;;;;4963577;28;20027;-56
2022/01/07 12:27:24;;;;;;;3.95;1.30;;;8.10;58.20;;;;;;4963073;28;20037;-55
2022/01/07 12:29:55;;;;;;;3.75;0.90;;;8.10;58.20;;;;;;4963777;28;20038;-55
2022/01/07 12:32:36;;;;;;;3.00;1.10;;;8.10;58.30;;;;;;4959625;28;20035;-58
2022/01/07 12:35:05;;;;;;;5.25;1.27;;;8.20;58.50;;;;;;4964120;28;20031;-57
2022/01/07 12:37:32;;;;;;;1.75;0.90;;;8.20;58.60;;;;;;4957559;28;20174;-56
2022/01/07 12:40:01;;;;;;;2.05;1.10;;;8.20;58.70;;;;;;4963889;28;20439;-57
2022/01/07 12:42:30;;;;;;;1.75;1.20;;;8.30;58.80;;;;;;4961622;28;20604;-56
2022/01/07 12:44:58;;;;;;;2.15;1.08;;;8.30;58.60;;;;;;4940489;28;20038;-57
2022/01/07 12:47:28;;;;;;;4.82;1.40;;;8.30;58.40;;;;;;4956780;28;20050;-55
2022/01/07 12:49:59;;;;;;;2.70;1.17;;;8.30;58.40;;;;;;4963070;28;20049;-54
2022/01/07 12:52:30;;;;;;;2.35;1.10;;;8.30;58.40;;;;;;4960089;28;20026;-58
2022/01/07 12:54:59;;;;;;;5.65;1.50;;;8.40;58.40;;;;;;4963541;28;20468;-57
2022/01/07 12:57:33;;;;;;;4.68;1.73;;;8.40;58.40;;;;;;4959500;28;20035;-58
2022/01/07 13:00:27;;;;;;;3.33;1.08;;;8.40;58.40;;;;;;4962863;28;20027;-57
2022/01/07 13:03:05;;;;;;;3.08;1.60;;;8.40;58.30;;;;;;4961901;28;20041;-56